7XS8 weather

Public forecast

Using degrees Fahrenheit for public forecast. Weather courtesy of forecast.io.

Closest aviation weather report (METAR) to Lift Crane Heliport

Closest report is Houston Southwest Airport, 7.9 nm (14.7 km) S. Retrieved 2020/08/15 16:35 UTC (8 minutes ago):

KAXH 151635Z AUTO 00000KT 10SM SCT028 31/24 A2998 RMK AO2 T03140242

Closest aviation forecast (TAF) to Lift Crane Heliport

Closest forecast is William P Hobby Airport, 9.3 nm (17.3 km) E. Retrieved 2020/08/15 12:22 UTC (4 hours ago):

TAF KHOU 151120Z 1512/1612 22005KT P6SM FEW020 SCT120 FM152100 17008KT P6SM FEW050 SCT180 FM161000 VRB03KT P6SM FEW015 SCT060